Time;durP1;ratioP1;P1;durP2;ratioP2;P2;SDS_P1;SDS_P2;PMS_P1;PMS_P2;Temp;Humidity;BMP_temperature;BMP_pressure;BME280_temperature;BME280_humidity;BME280_pressure;Samples;Min_cycle;Max_cycle;Signal;HPM_P1;HPM_P2
2021/10/01 00:00:51;;;;;;;28.70;17.10;;;;;;;5.36;70.39;101287.75;1717778;82;21439;-62
2021/10/01 00:03:18;;;;;;;;;;;;;;;5.51;70.47;101287.82;1723704;82;21566;-63
2021/10/01 00:05:45;;;;;;;26.65;18.55;;;;;;;5.52;70.61;101286.08;1718993;82;20485;-62
2021/10/01 00:08:12;;;;;;;26.33;17.07;;;;;;;5.46;70.50;101283.91;1715104;82;21792;-62
2021/10/01 00:10:41;;;;;;;30.08;18.85;;;;;;;5.41;70.42;101277.78;1720412;82;21769;-62
2021/10/01 00:13:08;;;;;;;26.10;18.25;;;;;;;5.39;70.38;101281.27;1718929;82;21644;-64
2021/10/01 00:15:35;;;;;;;26.40;20.12;;;;;;;5.35;70.37;101275.56;1727479;82;21455;-62
2021/10/01 00:18:04;;;;;;;27.02;17.62;;;;;;;5.30;70.29;101276.00;1719300;82;20994;-62
2021/10/01 00:20:31;;;;;;;27.60;18.05;;;;;;;5.32;70.59;101279.05;1712709;82;21769;-62
2021/10/01 00:22:58;;;;;;;28.03;18.23;;;;;;;5.44;70.56;101275.61;1714075;82;20973;-62
2021/10/01 00:25:26;;;;;;;28.23;19.55;;;;;;;5.42;70.40;101269.08;1716250;80;21552;-62
2021/10/01 00:27:53;;;;;;;30.95;21.20;;;;;;;5.39;70.51;101273.00;1726881;82;21049;-62
2021/10/01 00:30:20;;;;;;;30.80;20.27;;;;;;;5.36;70.37;101274.27;1712983;82;21454;-62
2021/10/01 00:32:48;;;;;;;28.77;19.55;;;;;;;5.32;70.09;101273.83;1723347;82;21661;-62
2021/10/01 00:35:15;;;;;;;33.00;21.07;;;;;;;5.27;69.92;101272.92;1721326;82;21541;-62
2021/10/01 00:37:43;;;;;;;28.57;19.73;;;;;;;5.18;70.00;101272.88;1723869;82;21523;-62
2021/10/01 00:40:11;;;;;;;30.47;20.00;;;;;;;5.19;70.42;101272.02;1719718;82;20990;-61
2021/10/01 00:42:38;;;;;;;30.48;20.02;;;;;;;5.32;70.55;101269.05;1722690;82;21530;-62
2021/10/01 00:45:06;;;;;;;40.45;20.25;;;;;;;5.32;70.36;101271.22;1714275;82;21790;-63
2021/10/01 00:47:34;;;;;;;29.90;21.17;;;;;;;5.27;70.20;101265.09;1715329;82;21549;-63
2021/10/01 00:50:03;;;;;;;36.73;21.95;;;;;;;5.23;70.16;101264.65;1720837;82;21466;-62
2021/10/01 00:52:31;;;;;;;30.92;21.45;;;;;;;5.18;70.05;101267.25;1727797;82;21495;-62
2021/10/01 00:54:59;;;;;;;36.35;21.57;;;;;;;5.13;70.35;101270.25;1720453;81;21601;-63
2021/10/01 00:57:26;;;;;;;28.62;18.45;;;;;;;5.07;70.28;101268.48;1724475;82;21820;-63
2021/10/01 00:59:53;;;;;;;30.25;19.80;;;;;;;5.10;70.53;101270.66;1734334;82;21647;-68
2021/10/01 01:02:19;;;;;;;27.00;20.48;;;;;;;5.20;70.69;101262.91;1726536;81;21186;-63
2021/10/01 01:04:47;;;;;;;30.53;21.03;;;;;;;5.20;70.73;101262.91;1738540;81;21494;-62
2021/10/01 01:07:32;;;;;;;33.40;21.27;;;;;;;5.15;70.82;101261.14;1720890;82;21578;-62
2021/10/01 01:10:31;;;;;;;29.65;20.88;;;;;;;5.11;71.01;101264.16;1726923;81;21757;-63
2021/10/01 01:13:22;;;;;;;35.45;22.07;;;;;;;5.06;70.91;101261.95;1735411;82;21404;-61
2021/10/01 01:15:59;;;;;;;36.35;21.85;;;;;;;4.99;70.79;101262.77;1722285;81;21013;-63
2021/10/01 01:18:35;;;;;;;34.10;19.30;;;;;;;4.94;70.62;101265.36;1735364;81;21526;-61
2021/10/01 01:21:03;;;;;;;33.88;20.37;;;;;;;4.97;71.05;101266.70;1706875;82;21629;-62
2021/10/01 01:24:11;;;;;;;26.82;19.40;;;;;;;5.11;71.09;101262.86;1730360;81;21831;-61
2021/10/01 01:27:15;;;;;;;33.30;21.12;;;;;;;5.12;70.96;101262.42;1736751;82;21427;-61
2021/10/01 01:30:05;;;;;;;35.75;21.25;;;;;;;5.03;70.87;101264.13;1731222;81;21566;-61
2021/10/01 01:32:36;;;;;;;34.55;22.20;;;;;;;4.96;70.75;101261.03;1733354;82;21480;-61
2021/10/01 01:35:11;;;;;;;31.25;21.07;;;;;;;4.89;70.63;101265.76;1728337;82;21503;-61
2021/10/01 01:37:47;;;;;;;31.62;20.43;;;;;;;4.84;70.67;101268.34;1735784;81;21788;-63
2021/10/01 01:40:16;;;;;;;34.83;21.12;;;;;;;4.85;71.17;101264.00;1701430;81;21592;-61
2021/10/01 01:42:43;;;;;;;34.03;21.45;;;;;;;4.98;71.36;101263.21;1731584;80;21498;-61
2021/10/01 01:45:13;;;;;;;34.08;20.97;;;;;;;5.00;71.65;101268.00;1736389;81;21585;-63
2021/10/01 01:47:40;;;;;;;34.27;21.45;;;;;;;4.96;71.75;101267.98;1722493;82;21534;-63
2021/10/01 01:50:08;;;;;;;38.33;20.70;;;;;;;4.92;72.35;101265.80;1706883;81;21748;-62
2021/10/01 01:52:36;;;;;;;29.20;18.35;;;;;;;4.88;72.64;101268.80;1712226;82;21501;-63
2021/10/01 01:55:04;;;;;;;25.80;18.27;;;;;;;4.92;73.64;101268.39;1710840;82;21578;-63
2021/10/01 01:57:31;;;;;;;42.20;18.98;;;;;;;5.05;73.01;101264.13;1717507;82;21593;-63
2021/10/01 01:59:59;;;;;;;43.25;19.15;;;;;;;5.05;73.58;101269.35;1689449;82;21526;-62
2021/10/01 02:02:28;;;;;;;52.70;20.70;;;;;;;4.99;74.00;101271.48;1716537;82;21811;-62
2021/10/01 02:04:54;;;;;;;45.92;20.82;;;;;;;4.93;74.08;101272.73;1689664;82;21024;-64
2021/10/01 02:07:21;;;;;;;41.48;18.25;;;;;;;4.88;73.92;101271.85;1718220;82;21455;-62
2021/10/01 02:09:47;;;;;;;30.35;17.87;;;;;;;4.85;74.48;101264.86;1714014;82;21503;-63
2021/10/01 02:12:15;;;;;;;35.25;17.32;;;;;;;4.97;74.26;101269.72;1715399;82;21588;-63
2021/10/01 02:14:49;;;;;;;25.48;17.20;;;;;;;4.95;74.11;101272.75;1717088;82;22019;-62
2021/10/01 02:17:18;;;;;;;23.60;17.25;;;;;;;4.86;73.88;101274.44;1720718;82;21538;-63
2021/10/01 02:19:47;;;;;;;21.57;18.40;;;;;;;4.80;73.40;101269.60;1718483;82;21578;-62
2021/10/01 02:22:18;;;;;;;22.32;16.50;;;;;;;4.72;73.01;101276.06;1724631;81;20994;-62
2021/10/01 02:24:45;;;;;;;18.52;14.30;;;;;;;4.66;72.69;101275.59;1717347;82;21518;-62
2021/10/01 02:27:23;;;;;;;21.50;15.55;;;;;;;4.66;72.68;101274.29;1728273;82;21758;-62
2021/10/01 02:29:58;;;;;;;17.80;15.70;;;;;;;4.75;72.42;101278.70;1715375;82;21539;-62
2021/10/01 02:32:36;;;;;;;19.80;16.37;;;;;;;4.72;72.12;101277.81;1715210;82;21559;-62
2021/10/01 02:35:04;;;;;;;26.45;16.82;;;;;;;4.64;71.97;101279.06;1715057;82;21081;-63
2021/10/01 02:37:32;;;;;;;30.68;18.07;;;;;;;4.55;71.85;101273.34;1719949;82;21594;-62
2021/10/01 02:40:02;;;;;;;23.87;17.98;;;;;;;4.47;71.96;101273.27;1700101;82;21816;-62
2021/10/01 02:42:30;;;;;;;20.02;16.23;;;;;;;4.40;72.00;101275.38;1712561;81;21636;-62
2021/10/01 02:44:57;;;;;;;23.32;16.77;;;;;;;4.41;72.35;101280.18;1726788;81;21523;-62
2021/10/01 02:47:29;;;;;;;25.88;17.17;;;;;;;4.52;72.41;101281.14;1721330;82;21587;-62
2021/10/01 02:49:58;;;;;;;23.42;17.60;;;;;;;4.55;72.35;101282.45;1717448;82;21503;-62
2021/10/01 02:52:42;;;;;;;21.68;16.52;;;;;;;4.51;72.28;101279.83;1725386;82;22088;-61
2021/10/01 02:55:43;;;;;;;26.82;17.02;;;;;;;4.46;72.30;101284.98;1722249;82;21476;-61
2021/10/01 02:58:37;;;;;;;23.87;17.20;;;;;;;4.40;72.19;101292.75;1724324;82;21506;-61
2021/10/01 03:01:07;;;;;;;20.02;14.73;;;;;;;4.34;71.86;101284.89;1720339;82;21618;-62
2021/10/01 03:04:50;;;;;;;23.00;16.40;;;;;;;4.48;71.91;101282.84;1777901;79;23422;-61
2021/10/01 03:07:17;;;;;;;22.17;17.80;;;;;;;4.45;71.63;101283.25;1762389;80;21557;-61
2021/10/01 03:09:44;;;;;;;20.92;16.93;;;;;;;4.38;71.61;101284.05;1772537;80;21898;-61
2021/10/01 03:12:11;;;;;;;21.40;17.42;;;;;;;4.32;71.56;101277.50;1721580;80;21597;-62
2021/10/01 03:14:37;;;;;;;18.52;15.88;;;;;;;4.25;71.42;101283.92;1753960;80;21422;-62
2021/10/01 03:17:04;;;;;;;17.70;15.63;;;;;;;4.18;71.30;101283.85;1725529;80;21581;-60
2021/10/01 03:19:31;;;;;;;16.48;13.25;;;;;;;4.12;71.18;101285.97;1733455;81;21542;-61
2021/10/01 03:21:59;;;;;;;19.50;14.70;;;;;;;4.14;71.36;101293.80;1655305;83;22125;-60
2021/10/01 03:24:26;;;;;;;15.27;13.40;;;;;;;4.24;71.48;101287.41;1718787;81;21645;-62
2021/10/01 03:26:52;;;;;;;15.80;13.45;;;;;;;4.25;71.52;101286.53;1718444;82;21593;-60
2021/10/01 03:29:20;;;;;;;19.50;14.78;;;;;;;4.21;71.64;101288.66;1717693;82;21526;-61
2021/10/01 03:31:47;;;;;;;19.20;14.50;;;;;;;4.16;72.04;101285.58;1722005;82;21478;-61
2021/10/01 03:34:14;;;;;;;18.27;14.68;;;;;;;4.16;72.04;101285.58;1716731;82;22125;-63
2021/10/01 03:36:44;;;;;;;15.80;12.30;;;;;;;4.13;71.86;101288.17;1718856;82;21581;-61
2021/10/01 03:39:11;;;;;;;18.52;13.08;;;;;;;4.16;71.87;101293.38;1715646;82;21027;-61
2021/10/01 03:41:38;;;;;;;18.07;15.08;;;;;;;4.24;71.75;101292.61;1708719;82;21597;-61
2021/10/01 03:44:05;;;;;;;24.87;16.67;;;;;;;4.23;71.70;101297.36;1717700;82;21712;-61
2021/10/01 03:46:31;;;;;;;30.35;18.45;;;;;;;4.16;71.74;101299.45;1698022;82;21866;-61
2021/10/01 03:48:58;;;;;;;23.77;17.55;;;;;;;4.08;71.86;101302.42;1713207;82;21561;-62
2021/10/01 03:51:25;;;;;;;22.73;16.93;;;;;;;4.01;71.96;101306.70;1714055;82;22134;-61
2021/10/01 03:53:54;;;;;;;22.50;16.25;;;;;;;3.95;71.92;101305.75;1718872;82;21560;-61
2021/10/01 03:56:20;;;;;;;17.87;15.43;;;;;;;3.87;71.91;101310.88;1714501;82;21561;-61
2021/10/01 03:58:49;;;;;;;20.80;15.83;;;;;;;3.92;72.34;101315.72;1715858;82;21918;-63
2021/10/01 04:01:16;;;;;;;31.17;17.97;;;;;;;4.05;72.59;101315.39;1715764;82;21439;-63
2021/10/01 04:03:43;;;;;;;23.97;17.77;;;;;;;4.09;72.73;101314.59;1714673;82;21571;-62
2021/10/01 04:06:10;;;;;;;22.93;17.83;;;;;;;4.07;72.82;101311.97;1702983;83;21578;-62
2021/10/01 04:08:37;;;;;;;28.10;18.30;;;;;;;4.04;72.96;101314.97;1761355;80;21407;-62
2021/10/01 04:11:04;;;;;;;40.78;19.70;;;;;;;4.04;72.96;101314.97;1758273;80;21849;-62
2021/10/01 04:13:31;;;;;;;23.27;17.80;;;;;;;4.01;73.08;101316.22;1749777;80;21491;-61
2021/10/01 04:15:58;;;;;;;20.32;15.70;;;;;;;4.02;73.13;101316.24;1754056;80;21484;-63
2021/10/01 04:18:25;;;;;;;19.90;15.93;;;;;;;4.17;73.07;101322.48;1686320;82;21557;-63
2021/10/01 04:20:52;;;;;;;26.05;17.27;;;;;;;4.19;72.87;101316.42;1747598;80;21625;-63
2021/10/01 04:23:20;;;;;;;33.43;16.20;;;;;;;4.14;72.75;101323.73;1757997;80;21838;-63
2021/10/01 04:25:46;;;;;;;24.02;16.97;;;;;;;4.09;73.15;101318.50;1745922;80;21555;-63
2021/10/01 04:28:15;;;;;;;17.87;15.23;;;;;;;4.06;72.89;101319.31;1747174;80;21553;-63
2021/10/01 04:30:44;;;;;;;16.25;14.55;;;;;;;4.04;72.88;101325.37;1691493;83;21542;-63
2021/10/01 04:33:13;;;;;;;16.12;13.62;;;;;;;4.07;72.99;101324.98;1687488;84;21661;-63
2021/10/01 04:35:42;;;;;;;14.28;12.78;;;;;;;4.20;72.85;101327.70;1689627;84;21868;-63
2021/10/01 04:38:09;;;;;;;17.82;14.07;;;;;;;4.22;73.05;101329.88;1687575;84;21563;-63
2021/10/01 04:40:36;;;;;;;15.83;14.23;;;;;;;4.16;73.05;101325.48;1687293;83;21558;-64
2021/10/01 04:43:03;;;;;;;14.98;13.43;;;;;;;4.16;73.05;101325.48;1687527;84;21579;-65
2021/10/01 04:45:30;;;;;;;15.08;13.48;;;;;;;4.17;73.12;101328.55;1676839;84;21543;-64
2021/10/01 04:47:57;;;;;;;13.00;11.78;;;;;;;4.19;72.84;101329.44;1693036;84;22063;-65
2021/10/01 04:50:25;;;;;;;13.15;11.90;;;;;;;4.12;73.01;101315.91;1740079;80;21030;-65
2021/10/01 04:52:51;;;;;;;14.33;12.90;;;;;;;4.42;73.12;101336.16;1761400;80;20990;-65
2021/10/01 04:55:20;;;;;;;13.10;11.80;;;;;;;4.47;73.23;101336.23;1756940;80;21495;-62
2021/10/01 04:57:49;;;;;;;15.63;12.83;;;;;;;4.48;73.48;101336.25;1756505;80;21502;-64
2021/10/01 05:00:27;;;;;;;15.78;12.78;;;;;;;4.54;73.46;101338.44;1669525;83;21680;-63
2021/10/01 05:03:12;;;;;;;14.25;12.75;;;;;;;4.54;73.35;101335.84;1758924;80;21511;-64
2021/10/01 05:05:41;;;;;;;13.65;12.25;;;;;;;4.55;73.45;101338.46;1763010;80;21545;-67
2021/10/01 05:08:15;;;;;;;13.48;12.15;;;;;;;4.64;73.82;101342.45;1748636;80;21527;-64
2021/10/01 05:10:59;;;;;;;13.53;12.10;;;;;;;4.83;73.78;101338.70;1648016;85;21600;-65
2021/10/01 05:13:44;;;;;;;14.05;12.68;;;;;;;4.87;73.73;101343.07;1731730;80;21672;-66
2021/10/01 05:16:29;;;;;;;13.83;12.43;;;;;;;4.88;73.65;101347.44;1762070;80;21523;-67
2021/10/01 05:19:17;;;;;;;13.32;11.93;;;;;;;4.88;73.49;101346.14;1677228;83;21595;-66
2021/10/01 05:22:03;;;;;;;11.93;10.72;;;;;;;4.91;74.01;101350.05;1639568;85;21607;-65
2021/10/01 05:24:30;;;;;;;12.85;11.50;;;;;;;5.07;74.59;101348.01;1674917;82;21563;-65
2021/10/01 05:26:57;;;;;;;13.65;12.33;;;;;;;5.26;74.81;101345.52;1755123;80;21779;-65
2021/10/01 05:29:25;;;;;;;16.57;13.75;;;;;;;5.36;74.98;101348.61;1753698;80;21010;-65
2021/10/01 05:31:52;;;;;;;20.80;15.63;;;;;;;5.40;74.93;101345.59;1763114;80;21613;-65
2021/10/01 05:34:20;;;;;;;21.17;16.57;;;;;;;5.43;75.07;101355.62;1756824;80;21519;-65
2021/10/01 05:36:47;;;;;;;21.65;14.98;;;;;;;5.51;75.15;101354.80;1761139;80;21667;-65
2021/10/01 05:39:15;;;;;;;16.82;14.85;;;;;;;5.64;75.56;101351.38;1753932;80;21561;-66
2021/10/01 05:41:42;;;;;;;21.75;16.07;;;;;;;5.87;75.44;101355.83;1752348;80;21534;-65
2021/10/01 05:44:09;;;;;;;19.32;15.60;;;;;;;5.98;75.25;101348.94;1752542;80;21554;-65
2021/10/01 05:46:40;;;;;;;22.50;16.52;;;;;;;6.06;75.23;101355.05;1763493;80;21431;-65
2021/10/01 05:49:27;;;;;;;20.77;15.80;;;;;;;6.12;75.21;101361.62;1697802;80;21523;-66
2021/10/01 05:52:18;;;;;;;20.52;14.93;;;;;;;6.19;75.04;101359.43;1752539;80;21437;-66
2021/10/01 05:54:51;;;;;;;20.40;15.68;;;;;;;6.36;75.06;101358.16;1716398;80;21488;-65
2021/10/01 05:57:18;;;;;;;21.90;15.78;;;;;;;6.57;74.93;101362.58;1768968;80;21550;-64
2021/10/01 05:59:49;;;;;;;18.50;15.45;;;;;;;6.65;75.01;101364.30;1766034;80;21525;-64
2021/10/01 06:02:19;;;;;;;20.40;17.02;;;;;;;6.70;75.31;101363.88;1759743;80;21041;-65
2021/10/01 06:04:48;;;;;;;21.12;15.93;;;;;;;6.75;75.34;101368.23;1755384;80;21672;-66
2021/10/01 06:07:16;;;;;;;18.48;14.25;;;;;;;6.85;75.43;101363.88;1751508;80;21503;-66
2021/10/01 06:09:44;;;;;;;20.32;16.25;;;;;;;7.07;75.33;101362.58;1750611;80;21432;-66
2021/10/01 06:12:12;;;;;;;20.23;16.02;;;;;;;7.17;75.08;101362.98;1762749;80;21531;-65
2021/10/01 06:14:39;;;;;;;18.20;15.30;;;;;;;7.23;74.72;101365.58;1760027;80;21524;-66
2021/10/01 06:17:07;;;;;;;20.72;16.52;;;;;;;7.29;74.49;101365.60;1769246;80;21766;-68
2021/10/01 06:19:37;;;;;;;16.93;14.73;;;;;;;7.34;74.30;101363.82;1749634;80;21157;-68
2021/10/01 06:22:07;;;;;;;18.62;15.23;;;;;;;7.46;74.23;101369.48;1764040;80;21677;-65
2021/10/01 06:24:35;;;;;;;20.72;15.68;;;;;;;7.68;74.19;101377.27;1753894;80;21096;-66
2021/10/01 06:27:03;;;;;;;17.27;15.35;;;;;;;7.75;74.28;101379.86;1755974;80;21054;-65
2021/10/01 06:29:30;;;;;;;21.12;16.17;;;;;;;7.81;74.30;101371.11;1765467;79;21767;-66
2021/10/01 06:31:59;;;;;;;19.90;16.45;;;;;;;7.86;74.17;101374.59;1708577;82;21440;-66
2021/10/01 06:34:25;;;;;;;17.27;13.93;;;;;;;7.86;74.08;101367.18;1718202;82;21654;-66
2021/10/01 06:36:52;;;;;;;17.40;14.53;;;;;;;8.03;74.04;101373.66;1727327;82;21168;-66
2021/10/01 06:39:19;;;;;;;19.07;15.78;;;;;;;8.24;74.04;101379.22;1707284;81;21594;-66
2021/10/01 06:41:46;;;;;;;20.68;15.83;;;;;;;8.34;73.67;101372.61;1727064;82;21499;-67
2021/10/01 06:44:23;;;;;;;19.32;15.80;;;;;;;8.38;73.43;101374.75;1727196;82;21542;-66
2021/10/01 06:46:48;;;;;;;21.65;16.55;;;;;;;8.43;73.12;101369.53;1717058;81;21587;-67
2021/10/01 08:19:23;;;;;;;12.82;9.83;;;;;;;12.19;59.08;101351.51;1747908;80;21464;-66
2021/10/01 08:21:53;;;;;;;11.03;8.48;;;;;;;12.30;58.18;101349.06;1744694;80;21560;-65
2021/10/01 08:24:20;;;;;;;10.80;7.28;;;;;;;12.38;57.07;101354.59;1748112;80;21518;-65
2021/10/01 08:26:48;;;;;;;10.38;8.65;;;;;;;12.48;55.78;101349.11;1741758;80;21562;-66
2021/10/01 08:29:14;;;;;;;16.97;10.53;;;;;;;12.56;55.19;101353.27;1744138;80;21379;-66
2021/10/01 08:31:41;;;;;;;16.35;11.88;;;;;;;12.64;55.71;101351.80;1747774;80;21495;-66
2021/10/01 08:34:09;;;;;;;13.95;10.93;;;;;;;12.73;56.19;101348.91;1743889;80;21626;-66
2021/10/01 08:36:36;;;;;;;15.65;11.60;;;;;;;12.81;55.05;101345.65;1743772;80;21442;-66
2021/10/01 08:39:05;;;;;;;15.13;10.08;;;;;;;12.90;54.65;101345.84;1744291;80;21072;-66
2021/10/01 08:41:34;;;;;;;11.83;7.85;;;;;;;12.97;54.26;101342.62;1719756;82;21684;-66
2021/10/01 08:44:00;;;;;;;13.93;8.50;;;;;;;13.04;53.16;101349.48;1739009;80;21577;-66
2021/10/01 08:46:27;;;;;;;13.58;9.60;;;;;;;13.12;52.97;101351.45;1751947;80;21088;-66
2021/10/01 08:48:54;;;;;;;12.30;8.85;;;;;;;13.22;52.22;101348.11;1751161;80;21495;-65
2021/10/01 08:51:21;;;;;;;12.45;8.63;;;;;;;13.29;52.34;101344.87;1754548;80;21521;-66
2021/10/01 08:53:52;;;;;;;11.57;7.78;;;;;;;13.40;52.08;101349.44;1700545;82;21463;-68
2021/10/01 08:56:16;;;;;;;10.40;7.35;;;;;;;13.50;51.40;101348.26;1748022;80;21498;-66
2021/10/01 08:58:42;;;;;;;7.70;6.90;;;;;;;13.59;50.98;101343.18;1747075;80;21431;-65
2021/10/01 09:01:09;;;;;;;7.80;7.00;;;;;;;13.66;50.40;101335.96;1752177;80;20978;-65
2021/10/01 09:03:42;;;;;;;9.35;7.08;;;;;;;13.72;49.90;101335.31;1736618;80;21595;-70
2021/10/01 09:06:09;;;;;;;12.25;7.33;;;;;;;13.80;49.50;101340.38;1757347;80;21523;-65
2021/10/01 09:08:52;;;;;;;12.60;7.53;;;;;;;13.84;49.75;101332.75;1754159;80;21563;-65
2021/10/01 09:11:30;;;;;;;8.45;6.85;;;;;;;13.93;49.65;101332.48;1757130;80;21507;-64
2021/10/01 09:14:06;;;;;;;6.05;5.53;;;;;;;14.03;49.41;101334.39;1760002;80;21577;-64
2021/10/01 09:16:35;;;;;;;6.12;5.53;;;;;;;14.10;48.88;101337.27;1756336;80;21396;-67
2021/10/01 09:19:02;;;;;;;;;;;;;;;14.18;48.17;101333.06;1754936;80;21846;-63
2021/10/01 09:21:30;;;;;;;6.37;5.75;;;;;;;14.28;47.23;101337.60;1751031;80;20592;-64
2021/10/01 09:24:02;;;;;;;;;;;;;;;14.33;47.38;101332.58;1764335;80;21463;-64
2021/10/01 09:26:30;;;;;;;8.83;5.40;;;;;;;14.38;45.97;101333.30;1753140;80;20534;-64
2021/10/01 09:29:08;;;;;;;7.25;5.37;;;;;;;14.40;46.63;101328.83;1762970;80;21467;-63
2021/10/01 09:31:49;;;;;;;5.95;5.35;;;;;;;14.48;46.82;101326.40;1719568;82;21412;-62
2021/10/01 09:34:26;;;;;;;7.70;5.60;;;;;;;14.56;45.95;101326.56;1743932;80;21547;-63
2021/10/01 09:37:09;;;;;;;9.78;5.20;;;;;;;14.64;45.98;101321.05;1750031;80;21465;-68
2021/10/01 09:39:39;;;;;;;8.38;5.40;;;;;;;14.73;45.92;101325.16;1759080;80;21489;-67
2021/10/01 09:42:19;;;;;;;7.60;5.08;;;;;;;14.80;45.62;101324.04;1760694;80;21877;-67
2021/10/01 09:44:53;;;;;;;7.35;5.15;;;;;;;14.89;45.30;101320.23;1761716;80;21778;-66
2021/10/01 09:47:35;;;;;;;6.65;4.28;;;;;;;14.96;44.96;101314.66;1757104;80;21553;-65
2021/10/01 09:50:12;;;;;;;5.70;4.28;;;;;;;15.04;44.63;101313.07;1760702;80;21461;-66
2021/10/01 09:52:50;;;;;;;6.90;4.95;;;;;;;15.11;43.89;101317.24;1753755;80;21555;-66
2021/10/01 09:55:23;;;;;;;11.10;5.35;;;;;;;15.16;43.38;101313.98;1761090;80;21479;-65
2021/10/01 09:58:10;;;;;;;6.40;4.35;;;;;;;15.23;42.62;101309.78;1754205;80;21748;-67
2021/10/01 10:00:46;;;;;;;6.35;4.53;;;;;;;15.25;42.63;101307.94;1757347;80;21585;-66
2021/10/01 10:03:29;;;;;;;5.42;4.35;;;;;;;15.30;42.67;101305.53;1759990;80;21533;-67
2021/10/01 10:06:14;;;;;;;5.50;4.28;;;;;;;15.38;43.00;101299.95;1752441;80;21566;-66
2021/10/01 10:08:42;;;;;;;11.33;5.10;;;;;;;15.46;42.51;101295.69;1753718;80;21671;-66
2021/10/01 10:11:20;;;;;;;8.00;4.58;;;;;;;15.50;42.15;101294.20;1748502;80;21553;-67
2021/10/01 10:13:54;;;;;;;7.60;5.35;;;;;;;15.53;42.07;101293.22;1744829;80;28587;-67
2021/10/01 10:16:28;;;;;;;9.73;4.62;;;;;;;15.55;41.92;101289.58;1751329;80;21068;-67
2021/10/01 10:18:59;;;;;;;13.10;4.62;;;;;;;15.62;42.03;101293.34;1747975;80;21456;-69
2021/10/01 10:21:28;;;;;;;6.70;4.83;;;;;;;15.66;42.12;101294.48;1754592;80;21541;-67
2021/10/01 10:23:56;;;;;;;7.90;5.15;;;;;;;15.71;42.04;101279.75;1750167;80;21895;-64
2021/10/01 10:26:24;;;;;;;10.45;5.17;;;;;;;15.75;41.81;101284.03;1747269;80;21136;-65
2021/10/01 10:28:55;;;;;;;12.53;5.50;;;;;;;15.80;41.88;101279.87;1748369;80;21610;-64
2021/10/01 10:31:28;;;;;;;5.85;5.08;;;;;;;15.86;42.10;101283.16;1734794;80;21521;-65
2021/10/01 10:33:57;;;;;;;7.55;4.53;;;;;;;15.94;42.19;101277.55;1745457;80;21605;-65
2021/10/01 10:36:41;;;;;;;10.10;4.35;;;;;;;16.04;41.91;101279.38;1739250;80;22186;-66
2021/10/01 10:39:17;;;;;;;5.95;5.10;;;;;;;16.15;41.87;101283.32;1738270;80;21503;-66
2021/10/01 10:41:49;;;;;;;7.92;5.05;;;;;;;16.26;41.57;101273.61;1753044;80;21593;-67
2021/10/01 10:44:16;;;;;;;7.42;4.60;;;;;;;16.32;41.86;101276.00;1728748;80;21578;-65
2021/10/01 10:46:45;;;;;;;;;;;;;;;16.42;41.82;101274.30;1744644;80;21001;-65
2021/10/01 10:49:22;;;;;;;7.28;4.75;;;;;;;16.49;41.28;101275.31;1745650;80;21835;-65
2021/10/01 10:54:42;;;;;;;8.33;4.92;;;;;;;16.62;41.24;101265.52;1752108;80;21575;-65
2021/10/01 10:57:27;;;;;;;7.90;4.45;;;;;;;16.68;40.87;101271.89;1747956;80;21003;-64
2021/10/01 11:00:02;;;;;;;6.17;4.17;;;;;;;16.64;40.17;101271.16;1744582;80;21440;-64
2021/10/01 11:02:33;;;;;;;8.98;4.55;;;;;;;16.65;40.00;101260.05;1741708;80;21721;-64
2021/10/01 11:05:22;;;;;;;9.03;4.60;;;;;;;16.62;39.87;101257.08;1749343;80;21581;-64
2021/10/01 11:08:00;;;;;;;6.25;4.53;;;;;;;16.65;40.21;101254.75;1749677;80;21593;-63
2021/10/01 11:10:45;;;;;;;9.75;4.87;;;;;;;16.71;40.15;101253.18;1760929;80;21483;-67
2021/10/01 11:13:25;;;;;;;5.53;4.28;;;;;;;16.73;39.85;101248.66;1757195;80;21416;-67
2021/10/01 11:16:18;;;;;;;9.33;4.55;;;;;;;16.74;39.38;101251.26;1750735;80;21765;-65
2021/10/01 11:19:00;;;;;;;6.40;4.97;;;;;;;16.75;39.68;101249.45;1748024;80;20988;-67
2021/10/01 11:21:33;;;;;;;11.80;3.85;;;;;;;16.79;39.86;101242.22;1758072;80;21591;-69
2021/10/01 11:24:05;;;;;;;4.33;3.80;;;;;;;16.83;39.57;101241.19;1756154;80;21581;-67
2021/10/01 11:26:54;;;;;;;6.92;3.72;;;;;;;16.90;39.51;101236.02;1749537;80;21565;-70
2021/10/01 11:29:31;;;;;;;;;;;;;;;17.00;39.18;101239.12;1753700;80;21842;-68
2021/10/01 11:32:08;;;;;;;;;;;;;;;17.03;38.70;101235.86;1754442;80;20449;-68
2021/10/01 11:34:47;;;;;;;5.30;3.30;;;;;;;16.93;38.24;101233.20;1756375;80;20395;-66
2021/10/01 11:37:40;;;;;;;7.25;3.87;;;;;;;16.92;38.71;101224.38;1758648;80;21616;-70
2021/10/01 11:40:14;;;;;;;7.08;3.72;;;;;;;16.99;38.30;101224.09;1752998;80;21511;-66
2021/10/01 11:42:42;;;;;;;6.37;3.98;;;;;;;17.07;38.40;101221.98;1753528;80;22629;-66
2021/10/01 11:45:23;;;;;;;6.50;3.42;;;;;;;17.17;38.43;101223.27;1749071;80;21624;-66
2021/10/01 11:48:05;;;;;;;7.15;3.22;;;;;;;17.21;37.62;101227.98;1753748;80;21720;-68
2021/10/01 11:50:39;;;;;;;5.55;3.52;;;;;;;17.23;37.54;101222.98;1752382;80;21571;-67
2021/10/01 11:53:27;;;;;;;5.42;3.20;;;;;;;17.25;37.24;101217.16;1752298;80;21427;-67
2021/10/01 11:55:59;;;;;;;5.00;3.30;;;;;;;17.34;37.08;101223.84;1730229;80;21592;-65
2021/10/01 11:58:27;;;;;;;5.92;3.55;;;;;;;17.35;36.59;101211.39;1750130;80;21078;-66
2021/10/01 12:00:57;;;;;;;6.37;3.15;;;;;;;17.38;36.42;101212.59;1757015;80;21108;-67
2021/10/01 12:03:24;;;;;;;4.53;3.20;;;;;;;17.39;36.51;101199.71;1751212;80;21573;-67
2021/10/01 12:05:53;;;;;;;4.97;3.40;;;;;;;17.47;36.26;101204.20;1755102;80;21515;-64
2021/10/01 12:08:23;;;;;;;8.98;3.42;;;;;;;17.55;35.64;101194.52;1753426;80;21551;-64
2021/10/01 12:10:54;;;;;;;4.47;2.90;;;;;;;17.63;35.62;101196.34;1751454;80;21092;-66
2021/10/01 12:13:27;;;;;;;5.30;3.50;;;;;;;17.73;35.83;101192.80;1762238;80;21979;-65
2021/10/01 12:16:04;;;;;;;3.90;3.17;;;;;;;17.87;35.73;101200.51;1763032;80;21017;-65
2021/10/01 12:18:38;;;;;;;5.78;3.50;;;;;;;18.00;35.30;101192.80;1755443;80;21487;-66
2021/10/01 12:21:20;;;;;;;5.20;3.02;;;;;;;18.11;35.02;101190.09;1756827;80;21431;-67
2021/10/01 12:24:14;;;;;;;7.47;3.17;;;;;;;18.25;34.90;101190.24;1763356;80;21510;-65
2021/10/01 12:26:43;;;;;;;4.67;3.10;;;;;;;18.38;34.63;101187.34;1755095;80;21482;-65
2021/10/01 12:29:17;;;;;;;10.65;3.50;;;;;;;18.64;34.38;101197.14;1751093;80;21659;-66
2021/10/01 12:31:54;;;;;;;5.37;3.02;;;;;;;18.87;33.73;101191.96;1756869;80;21466;-68
2021/10/01 12:34:26;;;;;;;5.80;2.90;;;;;;;19.22;33.45;101183.41;1752959;80;21817;-66
2021/10/01 12:37:03;;;;;;;4.95;3.30;;;;;;;19.57;33.19;101177.06;1760360;80;21910;-66
2021/10/01 12:39:34;;;;;;;6.60;2.80;;;;;;;19.84;32.63;101176.87;1757147;80;21509;-66
2021/10/01 12:42:05;;;;;;;4.08;3.12;;;;;;;20.03;32.32;101171.33;1760894;80;21550;-65
2021/10/01 12:44:38;;;;;;;4.70;3.55;;;;;;;20.23;32.40;101168.83;1752582;80;23449;-66
2021/10/01 12:47:14;;;;;;;6.03;3.15;;;;;;;20.38;32.03;101168.85;1753615;80;22110;-66
2021/10/01 12:49:41;;;;;;;6.25;3.42;;;;;;;20.49;31.72;101170.41;1753160;80;21475;-65
2021/10/01 12:52:18;;;;;;;4.45;3.20;;;;;;;20.57;31.65;101162.80;1760847;80;21487;-65
2021/10/01 12:54:52;;;;;;;3.85;3.45;;;;;;;20.65;31.66;101165.04;1736459;80;21061;-66
2021/10/01 12:57:38;;;;;;;5.03;3.15;;;;;;;20.81;31.27;101162.27;1752423;80;21606;-65
2021/10/01 13:00:10;;;;;;;3.30;3.00;;;;;;;21.28;31.11;101158.92;1756606;80;21888;-65
2021/10/01 13:02:53;;;;;;;6.12;3.22;;;;;;;21.28;31.11;101158.92;1747130;80;21553;-64
2021/10/01 13:05:26;;;;;;;5.70;3.15;;;;;;;21.62;30.16;101164.80;1755125;80;21568;-66
2021/10/01 13:08:01;;;;;;;4.72;3.40;;;;;;;22.02;29.43;101159.03;1764162;80;20979;-66
2021/10/01 13:10:50;;;;;;;3.52;2.85;;;;;;;22.76;28.48;101155.34;1747592;80;21172;-65
2021/10/01 13:13:23;;;;;;;4.15;2.90;;;;;;;22.76;28.48;101155.34;1746703;80;22085;-65
2021/10/01 13:15:55;;;;;;;5.30;3.08;;;;;;;23.15;27.63;101156.67;1740955;80;22079;-65
2021/10/01 13:18:38;;;;;;;3.95;3.52;;;;;;;23.42;27.10;101148.46;1743980;80;21590;-64